Terminal Aerodrome Forecast
Issued by NWS Lake Charles, LA

Home | Current Version | Previous Version | Text Only | Print | Product List | Glossary On
Versions: 1 2 3 4 5 6 7 8 9 10 11 12 13 14 15 16 17 18 19
000
FTUS44 KLCH 241128
TAFLCH
TAF
KLCH 241128Z 2412/2512 VRB03KT P6SM BKN250
     FM241600 VRB06KT P6SM VCSH SCT025 BKN035
     FM241900 14008KT P6SM VCTS FEW015CB BKN050
      TEMPO 2419/2423 3SM SHRA SCT015 OVC035
     FM250200 00000KT P6SM VCSH SCT020 SCT040=

USA.gov is the U.S. government's official web portal to all federal, state and local government web resources and services.